Terminal Aerodrome Forecast
Issued by NWS

Current Version | Previous Version | Text Only | Print | Product List | Glossary On
Versions: 1 2 3 4 5 6 7 8 9 10 11 12 13 14 15 16
000
FTUS43 KGRR 292331
TAFAZO
TAF
KAZO 292331Z 3000/3024 16005KT P6SM SCT025
     FM300300 16004KT P6SM SCT200
     FM300700 18003KT 4SM BR OVC015
     FM301200 20003KT P6SM VCSH BKN035
     FM301400 24007KT P6SM VCTS BKN025CB=

USA.gov is the U.S. government's official web portal to all federal, state and local government web resources and services.